createdAt,value
2022-09-15T00:01:47.544Z,20.56
2022-09-15T00:04:49.508Z,20.53
2022-09-15T00:07:51.123Z,20.50
2022-09-15T00:11:04.303Z,20.57
2022-09-15T00:14:07.986Z,20.60
2022-09-15T00:17:09.794Z,20.64
2022-09-15T00:20:11.455Z,20.58
2022-09-15T00:23:15.498Z,20.61
2022-09-15T00:26:20.070Z,20.72
2022-09-15T00:29:21.625Z,20.49
2022-09-15T00:32:23.356Z,20.48
2022-09-15T00:35:25.016Z,20.54
2022-09-15T00:38:26.659Z,20.64
2022-09-15T00:41:28.706Z,20.57
2022-09-15T00:44:36.235Z,20.43
2022-09-15T00:47:40.140Z,20.49
2022-09-15T00:50:46.456Z,20.48
2022-09-15T00:53:49.574Z,20.49
2022-09-15T00:56:55.257Z,20.47
2022-09-15T01:03:18.322Z,20.35
2022-09-15T01:06:37.443Z,20.32
2022-09-15T01:09:54.071Z,20.16
2022-09-15T01:13:00.480Z,20.25
2022-09-15T01:20:01.747Z,20.41
2022-09-15T01:23:09.303Z,20.33
2022-09-15T01:26:10.774Z,20.22
2022-09-15T01:29:37.439Z,20.25
2022-09-15T01:33:16.463Z,20.20
2022-09-15T01:36:37.800Z,20.04
2022-09-15T01:39:50.109Z,20.08
2022-09-15T01:42:53.562Z,19.86
2022-09-15T01:45:55.901Z,19.94
2022-09-15T01:49:00.733Z,19.87
2022-09-15T01:52:03.132Z,19.98
2022-09-15T01:55:14.043Z,19.83
2022-09-15T01:58:15.720Z,19.90
2022-09-15T02:01:33.148Z,19.91
2022-09-15T02:04:35.013Z,19.86
2022-09-15T02:07:45.286Z,19.83
2022-09-15T02:11:09.753Z,19.74
2022-09-15T02:14:21.815Z,19.77
2022-09-15T02:17:29.300Z,19.83
2022-09-15T02:20:39.766Z,19.88
2022-09-15T02:23:46.865Z,19.83
2022-09-15T02:26:51.479Z,19.74
2022-09-15T02:29:57.557Z,19.79
2022-09-15T02:33:09.409Z,19.82
2022-09-15T02:36:14.957Z,19.78
2022-09-15T02:39:20.556Z,19.75
2022-09-15T02:42:32.778Z,19.82
2022-09-15T02:45:34.689Z,19.78
2022-09-15T02:48:36.298Z,19.82
2022-09-15T02:51:38.228Z,19.81
2022-09-15T02:54:39.814Z,19.88
2022-09-15T02:57:41.730Z,19.86
2022-09-15T03:00:44.244Z,20.00
2022-09-15T03:03:46.832Z,19.89
2022-09-15T03:06:48.427Z,19.98
2022-09-15T03:09:50.700Z,20.19
2022-09-15T03:12:54.627Z,20.08
2022-09-15T03:15:56.638Z,20.12
2022-09-15T03:18:59.884Z,20.10
2022-09-15T03:22:01.527Z,20.19
2022-09-15T03:25:05.732Z,20.00
2022-09-15T03:28:07.355Z,19.96
2022-09-15T03:31:09.724Z,19.89
2022-09-15T03:34:11.388Z,19.87
2022-09-15T03:37:13.168Z,20.03
2022-09-15T03:40:15.053Z,19.99
2022-09-15T03:43:18.694Z,20.12
2022-09-15T03:46:20.882Z,20.04
2022-09-15T03:49:22.561Z,19.97
2022-09-15T03:52:24.457Z,19.82
2022-09-15T03:55:26.828Z,20.20
2022-09-15T03:58:30.736Z,20.21
2022-09-15T04:01:33.806Z,20.03
2022-09-15T04:04:35.482Z,20.01
2022-09-15T04:07:37.052Z,19.99
2022-09-15T04:10:40.202Z,20.11
2022-09-15T04:13:42.266Z,20.28
2022-09-15T04:16:44.154Z,20.14
2022-09-15T04:19:45.864Z,20.06
2022-09-15T04:22:47.896Z,19.99
2022-09-15T04:26:04.720Z,19.95
2022-09-15T04:29:13.418Z,20.12
2022-09-15T04:32:15.394Z,20.04
2022-09-15T04:35:17.045Z,19.93
2022-09-15T04:38:18.890Z,19.97
2022-09-15T04:41:21.044Z,20.02
2022-09-15T04:44:22.961Z,20.00
2022-09-15T04:47:24.561Z,19.92
2022-09-15T04:50:26.114Z,19.87
2022-09-15T04:53:28.024Z,19.90
2022-09-15T04:56:29.621Z,19.94
2022-09-15T04:59:31.212Z,19.94
2022-09-15T05:02:33.524Z,19.79
2022-09-15T05:05:35.519Z,19.83
2022-09-15T05:08:37.170Z,19.90
2022-09-15T05:11:39.100Z,19.84
2022-09-15T05:14:40.864Z,19.43
2022-09-15T05:17:42.445Z,19.30
2022-09-15T05:20:44.435Z,19.22
2022-09-15T05:23:46.919Z,19.51
2022-09-15T05:26:48.577Z,19.46
2022-09-15T05:29:56.886Z,19.56
2022-09-15T05:33:06.270Z,19.61
2022-09-15T05:36:07.898Z,19.57
2022-09-15T05:39:09.844Z,19.46
2022-09-15T05:42:11.531Z,19.45
2022-09-15T05:45:13.501Z,19.49
2022-09-15T05:48:15.091Z,19.68
2022-09-15T05:51:17.026Z,19.50
2022-09-15T05:54:18.720Z,19.56
2022-09-15T05:57:20.697Z,19.54
2022-09-15T06:00:22.894Z,19.52
2022-09-15T06:03:28.677Z,19.64
2022-09-15T06:06:33.185Z,19.71
2022-09-15T06:09:35.219Z,19.81
2022-09-15T06:12:36.813Z,19.83
2022-09-15T06:15:41.187Z,19.87
2022-09-15T06:18:42.989Z,20.18
2022-09-15T06:21:44.906Z,20.24
2022-09-15T06:24:46.512Z,20.21
2022-09-15T06:27:50.359Z,20.15
2022-09-15T06:30:51.985Z,20.36
2022-09-15T06:33:56.183Z,20.51
2022-09-15T06:36:57.890Z,20.64
2022-09-15T06:40:00.001Z,20.92
2022-09-15T06:43:01.688Z,20.75
2022-09-15T06:46:04.857Z,20.92
2022-09-15T06:49:07.249Z,20.81
2022-09-15T06:52:08.899Z,20.98
2022-09-15T06:55:10.488Z,21.01
2022-09-15T06:58:12.314Z,21.07
2022-09-15T07:01:19.823Z,21.18
2022-09-15T07:04:22.206Z,21.21
2022-09-15T07:07:23.980Z,21.03
2022-09-15T07:10:25.873Z,20.91
2022-09-15T07:13:27.499Z,20.73
2022-09-15T07:16:29.755Z,20.89
2022-09-15T07:19:31.739Z,20.83
2022-09-15T07:22:33.404Z,20.81
2022-09-15T07:25:35.918Z,20.70
2022-09-15T07:28:38.813Z,20.70
2022-09-15T07:31:40.719Z,20.79
2022-09-15T07:34:42.299Z,21.07
2022-09-15T07:37:44.793Z,21.16
2022-09-15T07:40:46.510Z,21.57
2022-09-15T07:43:50.643Z,21.93
2022-09-15T07:46:52.191Z,22.00
2022-09-15T07:49:54.080Z,22.13
2022-09-15T07:52:56.864Z,22.50
2022-09-15T07:55:58.458Z,22.54
2022-09-15T07:59:00.436Z,22.79
2022-09-15T08:02:02.110Z,22.53
2022-09-15T08:05:04.352Z,22.43
2022-09-15T08:08:06.355Z,22.50
2022-09-15T08:11:19.521Z,22.47
2022-09-15T08:14:21.743Z,22.81
2022-09-15T08:17:23.747Z,23.07
2022-09-15T08:20:25.644Z,22.99
2022-09-15T08:23:27.196Z,23.07
2022-09-15T08:26:30.003Z,23.08
2022-09-15T08:29:32.300Z,23.43
2022-09-15T08:32:33.847Z,23.51
2022-09-15T08:35:37.278Z,24.13
2022-09-15T08:38:40.795Z,24.69
2022-09-15T08:41:48.505Z,24.74
2022-09-15T08:44:56.737Z,25.27
2022-09-15T08:48:02.942Z,26.48
2022-09-15T08:51:12.255Z,27.86
2022-09-15T08:54:22.855Z,28.65
2022-09-15T08:57:26.279Z,26.68
2022-09-15T09:00:29.148Z,28.73
2022-09-15T09:03:34.000Z,28.85
2022-09-15T09:06:44.939Z,30.24
2022-09-15T09:10:17.697Z,32.42
2022-09-15T09:13:41.235Z,30.96
2022-09-15T09:16:49.887Z,30.84
2022-09-15T09:20:14.623Z,31.98
2022-09-15T09:23:24.220Z,31.52
2022-09-15T09:26:29.731Z,33.82
2022-09-15T09:29:42.868Z,33.92
2022-09-15T09:33:11.398Z,34.14
2022-09-15T09:36:13.318Z,31.67
2022-09-15T09:39:15.571Z,31.20
2022-09-15T09:42:18.945Z,29.45
2022-09-15T09:45:20.782Z,32.15
2022-09-15T09:48:25.134Z,34.13
2022-09-15T09:51:31.569Z,31.06
2022-09-15T09:54:34.231Z,30.56
2022-09-15T09:57:40.505Z,29.62
2022-09-15T10:00:42.203Z,29.14
2022-09-15T10:03:45.289Z,28.84
2022-09-15T10:06:47.441Z,29.33
2022-09-15T10:09:59.185Z,28.81
2022-09-15T10:13:03.331Z,28.18
2022-09-15T10:16:06.897Z,27.62
2022-09-15T10:19:14.248Z,27.41
2022-09-15T10:22:27.495Z,27.50
2022-09-15T10:25:55.193Z,27.12
2022-09-15T10:29:17.262Z,27.47
2022-09-15T10:32:25.205Z,27.04
2022-09-15T10:35:33.015Z,26.79
2022-09-15T10:38:43.041Z,26.98
2022-09-15T10:41:59.325Z,27.02
2022-09-15T10:45:03.829Z,26.84
2022-09-15T10:48:27.070Z,27.19
2022-09-15T10:52:00.873Z,27.14
2022-09-15T10:55:53.523Z,27.43
2022-09-15T10:59:22.331Z,27.35
2022-09-15T11:02:41.092Z,27.79
2022-09-15T11:05:49.272Z,27.59
2022-09-15T11:09:02.578Z,27.29
2022-09-15T11:12:13.152Z,27.47
2022-09-15T11:19:29.808Z,27.73
2022-09-15T11:30:15.200Z,28.66
2022-09-15T11:33:24.207Z,27.97
2022-09-15T11:36:38.480Z,28.23
2022-09-15T11:39:45.987Z,27.77
2022-09-15T11:43:22.965Z,27.86
2022-09-15T11:47:00.349Z,27.61
2022-09-15T11:50:10.754Z,27.52
2022-09-15T11:53:44.057Z,27.44
2022-09-15T11:56:47.610Z,27.14
2022-09-15T11:59:51.965Z,26.81
2022-09-15T12:03:05.656Z,26.74
2022-09-15T12:06:15.054Z,26.48
2022-09-15T12:09:18.226Z,26.47
2022-09-15T12:12:21.690Z,26.56
2022-09-15T12:15:27.696Z,26.59
2022-09-15T12:19:01.589Z,26.71
2022-09-15T12:22:06.469Z,26.80
2022-09-15T12:25:15.124Z,26.80
2022-09-15T12:28:22.895Z,26.81
2022-09-15T12:31:31.657Z,26.60
2022-09-15T12:34:36.763Z,26.88
2022-09-15T12:38:01.471Z,26.96
2022-09-15T12:41:03.164Z,26.69
2022-09-15T12:44:21.343Z,26.85
2022-09-15T12:47:40.149Z,26.76
2022-09-15T12:50:44.310Z,26.74
2022-09-15T12:53:59.835Z,26.62
2022-09-15T12:57:02.979Z,26.61
2022-09-15T13:00:27.674Z,26.52
2022-09-15T13:03:59.060Z,26.54
2022-09-15T13:07:15.811Z,26.29
2022-09-15T13:10:27.139Z,26.32
2022-09-15T13:13:43.898Z,26.07
2022-09-15T13:17:24.128Z,26.04
2022-09-15T13:20:33.437Z,26.04
2022-09-15T13:23:40.943Z,25.91
2022-09-15T13:26:44.992Z,25.93
2022-09-15T13:30:09.657Z,25.77
2022-09-15T13:33:26.254Z,25.93
2022-09-15T13:40:25.453Z,25.60
2022-09-15T13:43:45.665Z,25.50
2022-09-15T13:47:18.668Z,25.53
2022-09-15T13:50:34.262Z,25.48
2022-09-15T13:54:11.568Z,25.27
2022-09-15T13:57:13.220Z,24.64
2022-09-15T14:00:39.700Z,23.62
2022-09-15T14:04:18.217Z,21.58
2022-09-15T14:07:23.418Z,21.25
2022-09-15T14:10:28.182Z,21.13
2022-09-15T14:13:31.414Z,20.05
2022-09-15T14:16:36.293Z,19.84
2022-09-15T14:19:39.827Z,19.99
2022-09-15T14:22:41.663Z,20.20
2022-09-15T14:25:46.013Z,20.36
2022-09-15T14:29:02.485Z,20.54
2022-09-15T14:32:04.286Z,20.73
2022-09-15T14:35:09.266Z,20.55
2022-09-15T14:38:22.704Z,20.56
2022-09-15T14:41:24.619Z,20.32
2022-09-15T14:48:06.322Z,19.46
2022-09-15T14:51:28.768Z,19.14
2022-09-15T14:54:37.615Z,18.93
2022-09-15T15:01:14.235Z,18.52
2022-09-15T15:04:18.887Z,18.52
2022-09-15T15:07:30.921Z,18.53
2022-09-15T15:10:35.922Z,18.55
2022-09-15T15:13:42.690Z,18.65
2022-09-15T15:16:53.544Z,18.64
2022-09-15T15:20:14.384Z,18.62
2022-09-15T15:23:24.525Z,18.64
2022-09-15T15:26:34.096Z,18.70
2022-09-15T15:29:43.283Z,18.70
2022-09-15T15:32:45.629Z,18.60
2022-09-15T15:35:48.885Z,18.58
2022-09-15T15:38:57.047Z,18.59
2022-09-15T15:42:02.546Z,18.83
2022-09-15T15:45:24.648Z,18.89
2022-09-15T15:48:36.911Z,18.80
2022-09-15T15:51:40.793Z,18.83
2022-09-15T15:54:43.161Z,18.67
2022-09-15T15:57:47.665Z,18.65
2022-09-15T16:00:53.828Z,18.56
2022-09-15T16:03:55.614Z,18.68
2022-09-15T16:06:57.599Z,18.55
2022-09-15T16:10:00.218Z,18.56
2022-09-15T16:13:02.121Z,18.46
2022-09-15T16:16:22.625Z,18.43
2022-09-15T16:19:24.676Z,18.25
2022-09-15T16:22:26.260Z,18.07
2022-09-15T16:25:34.337Z,18.23
2022-09-15T16:28:35.941Z,18.14
2022-09-15T16:31:38.026Z,18.04
2022-09-15T16:34:39.911Z,18.10
2022-09-15T16:37:41.509Z,18.17
2022-09-15T16:40:43.168Z,17.85
2022-09-15T16:43:46.445Z,17.94
2022-09-15T16:46:48.427Z,17.87
2022-09-15T16:49:52.667Z,17.88
2022-09-15T16:52:54.749Z,17.98
2022-09-15T16:55:56.762Z,18.18
2022-09-15T16:59:00.443Z,18.30
2022-09-15T17:02:02.433Z,18.22
2022-09-15T17:05:15.515Z,18.23
2022-09-15T17:08:19.238Z,18.20
2022-09-15T17:11:24.237Z,18.18
2022-09-15T17:14:26.003Z,18.16
2022-09-15T17:17:27.633Z,18.12
2022-09-15T17:20:29.530Z,18.17
2022-09-15T17:23:35.766Z,18.36
2022-09-15T17:26:37.845Z,18.36
2022-09-15T17:29:39.493Z,18.37
2022-09-15T17:32:42.117Z,18.31
2022-09-15T17:35:44.580Z,18.38
2022-09-15T17:38:49.128Z,18.26
2022-09-15T17:41:51.442Z,18.41
2022-09-15T17:44:53.377Z,18.40
2022-09-15T17:47:55.252Z,18.34
2022-09-15T17:50:57.048Z,18.34
2022-09-15T17:53:59.035Z,18.17
2022-09-15T17:57:00.967Z,18.11
2022-09-15T18:00:03.701Z,18.04
2022-09-15T18:03:16.286Z,18.19
2022-09-15T18:06:18.429Z,17.99
2022-09-15T18:09:20.256Z,18.05
2022-09-15T18:12:21.923Z,18.10
2022-09-15T18:15:32.033Z,18.14
2022-09-15T18:18:34.525Z,18.14
2022-09-15T18:21:36.200Z,18.03
2022-09-15T18:24:38.244Z,18.00
2022-09-15T18:27:39.862Z,17.86
2022-09-15T18:30:44.939Z,17.71
2022-09-15T18:33:46.674Z,17.86
2022-09-15T18:36:48.718Z,17.74
2022-09-15T18:39:50.385Z,17.65
2022-09-15T18:42:52.512Z,17.79
2022-09-15T18:46:01.599Z,17.58
2022-09-15T18:49:03.777Z,17.57
2022-09-15T18:52:05.701Z,17.58
2022-09-15T18:55:11.663Z,17.74
2022-09-15T18:58:14.148Z,17.52
2022-09-15T19:01:18.345Z,17.50
2022-09-15T19:04:20.498Z,17.33
2022-09-15T19:07:26.331Z,17.27
2022-09-15T19:10:30.321Z,17.41
2022-09-15T19:13:32.975Z,17.39
2022-09-15T19:16:56.638Z,17.31
2022-09-15T19:19:57.096Z,17.28
2022-09-15T19:22:58.912Z,17.28
2022-09-15T19:26:09.764Z,17.41
2022-09-15T19:29:12.066Z,17.22
2022-09-15T19:32:18.350Z,17.02
2022-09-15T19:35:20.373Z,17.02
2022-09-15T19:38:22.515Z,17.20
2022-09-15T19:41:24.544Z,17.17
2022-09-15T19:44:26.604Z,17.26
2022-09-15T19:47:28.447Z,17.09
2022-09-15T19:50:30.149Z,17.11
2022-09-15T19:53:32.874Z,17.09
2022-09-15T19:56:35.784Z,16.98
2022-09-15T19:59:37.787Z,17.08
2022-09-15T20:02:40.053Z,17.26
2022-09-15T20:05:41.703Z,17.23
2022-09-15T20:08:45.876Z,17.08
2022-09-15T20:11:48.198Z,16.96
2022-09-15T20:14:49.707Z,17.03
2022-09-15T20:17:51.912Z,17.05
2022-09-15T20:20:54.276Z,17.05
2022-09-15T20:23:57.300Z,16.81
2022-09-15T20:26:59.303Z,16.95
2022-09-15T20:30:00.915Z,16.94
2022-09-15T20:33:20.865Z,17.07
2022-09-15T20:36:25.923Z,17.11
2022-09-15T20:39:27.790Z,16.99
2022-09-15T20:42:29.468Z,16.90
2022-09-15T20:45:36.446Z,17.07
2022-09-15T20:48:39.260Z,16.85
2022-09-15T20:51:41.378Z,16.83
2022-09-15T20:54:42.972Z,17.11
2022-09-15T20:57:44.579Z,17.01
2022-09-15T21:00:47.943Z,16.94
2022-09-15T21:03:50.727Z,16.77
2022-09-15T21:06:52.301Z,16.87
2022-09-15T21:09:53.891Z,16.80
2022-09-15T21:12:55.891Z,16.98
2022-09-15T21:15:59.546Z,16.89
2022-09-15T21:19:01.860Z,16.97
2022-09-15T21:22:03.870Z,16.94
2022-09-15T21:25:06.118Z,16.96
2022-09-15T21:28:07.793Z,16.91
2022-09-15T21:31:15.984Z,16.95
2022-09-15T21:34:17.619Z,16.94
2022-09-15T21:37:19.615Z,16.79
2022-09-15T21:40:21.245Z,16.84
2022-09-15T21:43:23.303Z,16.82
2022-09-15T21:46:27.960Z,16.79
2022-09-15T21:49:30.106Z,16.70
2022-09-15T21:52:33.443Z,16.82
2022-09-15T21:55:37.011Z,16.74
2022-09-15T21:58:43.186Z,16.81
2022-09-15T22:01:45.307Z,16.82
2022-09-15T22:04:46.960Z,16.88
2022-09-15T22:07:48.562Z,16.81
2022-09-15T22:10:50.451Z,16.81
2022-09-15T22:13:52.173Z,16.92
2022-09-15T22:16:55.124Z,17.09
2022-09-15T22:19:57.300Z,16.87
2022-09-15T22:23:01.959Z,16.84
2022-09-15T22:26:09.804Z,16.89
2022-09-15T22:29:12.522Z,16.88
2022-09-15T22:32:14.345Z,16.84
2022-09-15T22:35:17.442Z,16.90
2022-09-15T22:38:19.884Z,16.91
2022-09-15T22:41:25.238Z,16.99
2022-09-15T22:44:26.870Z,17.06
2022-09-15T22:47:28.440Z,16.96
2022-09-15T22:50:30.577Z,17.01
2022-09-15T22:53:32.192Z,16.99
2022-09-15T22:56:34.121Z,16.84
2022-09-15T22:59:35.683Z,16.92
2022-09-15T23:02:37.316Z,17.00
2022-09-15T23:05:39.352Z,16.83
2022-09-15T23:08:41.505Z,16.84
2022-09-15T23:11:43.334Z,16.82
2022-09-15T23:14:45.317Z,16.81
2022-09-15T23:17:47.439Z,16.71
2022-09-15T23:20:55.810Z,16.66
2022-09-15T23:24:16.090Z,16.68
2022-09-15T23:27:18.296Z,16.72
2022-09-15T23:30:19.988Z,16.70
2022-09-15T23:33:23.157Z,16.61
2022-09-15T23:36:24.849Z,16.68
2022-09-15T23:39:26.975Z,16.63
2022-09-15T23:42:28.603Z,16.56
2022-09-15T23:45:30.203Z,16.64
2022-09-15T23:48:32.807Z,16.65
2022-09-15T23:51:34.722Z,16.64
2022-09-15T23:54:36.734Z,16.42
2022-09-15T23:57:38.424Z,16.43
